Coosaw, South Carolina
Current Conditions -  °F | °C
As of 1:56 PM on Sunday 23 Nov 2014 (Local Time) from KNBC Reporting Station
Light Rain Light Rain  
Wind Chill: 66°   Ceiling: 500
Heat Index: 66°   Visibility: 3mi
Dew Point: 65°   Wind: 10mph
Humidity: 96%   Direction: 120°ESE
Pressure: 29.92"   Gusts: NA
Location:  32.5229°N, 80.7459°W
Report Text: KNBC 231856Z AUTO 12009KT 3SM -RA BR OVC005 19/18 A2992 RMK AO2 SLP131 P0015 T01890183 $
Loading
Personal Weather Stations






























Interactive Weather Map New forecast layout! Learn more

10-Day Weather Forecast

Advertisements
Track Severe Weather on mobile